createdAt,value
2022-07-28T00:04:17.731Z,18.16
2022-07-28T00:09:21.046Z,18.73
2022-07-28T00:14:24.391Z,20.07
2022-07-28T00:19:27.281Z,20.63
2022-07-28T00:24:31.330Z,20.49
2022-07-28T00:29:42.587Z,20.43
2022-07-28T00:34:53.757Z,20.42
2022-07-28T00:39:56.797Z,20.49
2022-07-28T00:44:59.595Z,20.63
2022-07-28T00:50:03.842Z,20.55
2022-07-28T00:55:07.109Z,20.41
2022-07-28T01:00:10.672Z,20.41
2022-07-28T01:05:15.308Z,20.37
2022-07-28T01:10:37.151Z,20.34
2022-07-28T01:15:41.602Z,21.00
2022-07-28T01:21:14.767Z,21.83
2022-07-28T01:26:36.208Z,22.46
2022-07-28T01:31:42.425Z,23.08
2022-07-28T01:36:55.825Z,23.64
2022-07-28T01:41:59.380Z,23.99
2022-07-28T01:47:03.627Z,24.37
2022-07-28T01:52:08.387Z,24.73
2022-07-28T01:57:14.872Z,25.14
2022-07-28T02:02:19.237Z,25.38
2022-07-28T02:07:23.232Z,25.50
2022-07-28T02:12:27.100Z,25.17
2022-07-28T02:17:31.930Z,24.31
2022-07-28T02:22:35.255Z,23.66
2022-07-28T02:27:59.539Z,23.14
2022-07-28T02:33:06.366Z,22.92
2022-07-28T02:38:41.291Z,22.78
2022-07-28T02:43:49.762Z,22.68
2022-07-28T02:48:56.950Z,22.61
2022-07-28T02:54:01.200Z,22.63
2022-07-28T02:59:06.899Z,22.59
2022-07-28T03:04:12.571Z,22.59
2022-07-28T03:09:18.093Z,22.64
2022-07-28T03:14:20.792Z,22.71
2022-07-28T03:19:24.547Z,22.72
2022-07-28T03:24:30.619Z,22.80
2022-07-28T03:29:34.343Z,22.84
2022-07-28T03:34:37.215Z,22.87
2022-07-28T03:39:47.239Z,22.90
2022-07-28T03:44:51.176Z,22.98
2022-07-28T03:49:54.240Z,23.08
2022-07-28T03:54:57.005Z,23.14
2022-07-28T04:00:00.346Z,23.14
2022-07-28T04:05:03.640Z,23.18
2022-07-28T04:10:08.496Z,23.20
2022-07-28T04:15:15.088Z,23.26
2022-07-28T04:20:19.706Z,23.29
2022-07-28T04:25:25.122Z,23.36
2022-07-28T04:30:29.122Z,23.43
2022-07-28T04:35:32.041Z,23.50
2022-07-28T04:40:34.889Z,23.57
2022-07-28T04:45:37.792Z,23.62
2022-07-28T04:50:45.850Z,23.62
2022-07-28T04:55:49.696Z,23.56
2022-07-28T05:00:52.989Z,23.53
2022-07-28T05:05:55.992Z,23.49
2022-07-28T05:10:58.834Z,23.53
2022-07-28T05:16:02.045Z,23.69
2022-07-28T05:21:04.878Z,23.76
2022-07-28T05:26:07.679Z,23.81
2022-07-28T05:31:10.769Z,23.86
2022-07-28T05:36:13.681Z,23.91
2022-07-28T05:41:16.460Z,23.98
2022-07-28T05:46:19.305Z,24.00
2022-07-28T05:51:22.271Z,23.98
2022-07-28T05:56:25.142Z,24.08
2022-07-28T06:01:28.130Z,24.15
2022-07-28T06:06:30.883Z,24.14
2022-07-28T06:11:36.175Z,24.20
2022-07-28T06:17:07.401Z,23.84
2022-07-28T06:22:14.222Z,24.24
2022-07-28T06:27:16.968Z,24.28
2022-07-28T06:32:19.692Z,24.42
2022-07-28T06:37:22.380Z,24.50
2022-07-28T06:42:25.482Z,24.55
2022-07-28T06:47:28.500Z,24.52
2022-07-28T06:52:32.410Z,24.60
2022-07-28T06:57:35.601Z,24.61
2022-07-28T07:02:40.234Z,24.70
2022-07-28T07:07:43.796Z,24.81
2022-07-28T07:12:46.839Z,24.91
2022-07-28T07:17:51.351Z,24.95
2022-07-28T07:22:54.559Z,25.11
2022-07-28T07:27:57.289Z,25.34
2022-07-28T07:33:10.544Z,25.37
2022-07-28T07:38:13.670Z,25.45
2022-07-28T07:43:16.369Z,25.41
2022-07-28T07:48:28.643Z,25.33
2022-07-28T07:53:31.470Z,25.47
2022-07-28T07:58:34.298Z,25.51
2022-07-28T08:03:37.013Z,25.60
2022-07-28T08:08:48.015Z,25.50
2022-07-28T08:13:54.231Z,25.47
2022-07-28T08:18:58.822Z,25.52
2022-07-28T08:24:09.877Z,25.69
2022-07-28T08:29:17.746Z,26.11
2022-07-28T08:34:33.315Z,26.19
2022-07-28T08:39:37.204Z,26.33
2022-07-28T08:45:03.455Z,26.48
2022-07-28T08:50:07.687Z,26.44
2022-07-28T08:55:31.300Z,26.53
2022-07-28T09:01:39.471Z,26.71
2022-07-28T09:06:45.517Z,26.99
2022-07-28T09:11:48.274Z,26.89
2022-07-28T09:16:54.256Z,26.88
2022-07-28T09:21:57.677Z,26.95
2022-07-28T09:27:07.201Z,26.94
2022-07-28T09:32:21.108Z,26.73
2022-07-28T09:37:27.824Z,26.42
2022-07-28T09:42:47.009Z,26.53
2022-07-28T09:47:50.005Z,26.48
2022-07-28T09:52:53.039Z,26.46
2022-07-28T09:57:56.161Z,26.50
2022-07-28T10:03:01.010Z,26.49
2022-07-28T10:08:03.956Z,26.48
2022-07-28T10:13:06.983Z,26.48
2022-07-28T10:18:09.845Z,26.42
2022-07-28T10:23:16.261Z,26.40
2022-07-28T10:28:23.385Z,26.43
2022-07-28T10:33:31.254Z,26.40
2022-07-28T10:38:40.703Z,26.42
2022-07-28T10:43:45.504Z,26.43
2022-07-28T10:48:49.102Z,26.44
2022-07-28T10:54:17.790Z,26.52
2022-07-28T11:00:00.752Z,26.52
2022-07-28T11:05:41.086Z,26.45
2022-07-28T11:10:53.441Z,26.34
2022-07-28T11:16:20.727Z,26.31
2022-07-28T11:21:23.621Z,26.32
2022-07-28T11:26:27.977Z,26.36
2022-07-28T11:31:52.028Z,26.29
2022-07-28T11:37:04.776Z,26.27
2022-07-28T11:42:27.054Z,26.26
2022-07-28T11:47:32.073Z,26.26
2022-07-28T11:52:35.009Z,26.23
2022-07-28T11:57:41.729Z,26.23
2022-07-28T12:02:44.549Z,26.10
2022-07-28T12:07:50.294Z,26.10
2022-07-28T12:12:54.346Z,26.01
2022-07-28T12:17:57.942Z,26.06
2022-07-28T12:23:07.041Z,26.14
2022-07-28T12:28:23.586Z,26.13
2022-07-28T12:33:29.766Z,26.28
2022-07-28T12:38:33.334Z,26.80
2022-07-28T12:43:36.041Z,28.00
2022-07-28T12:48:41.806Z,27.48
2022-07-28T12:53:51.781Z,26.87
2022-07-28T12:59:06.069Z,26.57
2022-07-28T13:04:08.885Z,26.38
2022-07-28T13:09:22.514Z,27.35
2022-07-28T13:14:56.229Z,30.05
2022-07-28T13:20:13.611Z,31.38
2022-07-28T13:25:16.740Z,32.33
2022-07-28T13:30:19.535Z,32.67
2022-07-28T13:35:22.935Z,32.20
2022-07-28T13:40:25.932Z,31.96
2022-07-28T13:45:30.291Z,32.13
2022-07-28T13:50:32.984Z,31.77
2022-07-28T13:55:36.775Z,31.16
2022-07-28T14:00:39.547Z,30.03
2022-07-28T14:05:42.243Z,28.24
2022-07-28T14:10:48.790Z,28.03
2022-07-28T14:15:51.684Z,27.30
2022-07-28T14:21:06.010Z,25.90
2022-07-28T14:26:34.565Z,24.74
2022-07-28T14:31:31.737Z,24.02
2022-07-28T14:36:34.363Z,23.53
2022-07-28T14:41:37.394Z,23.24
2022-07-28T14:46:40.031Z,22.98
2022-07-28T14:51:44.761Z,22.76
2022-07-28T14:56:47.736Z,22.50
2022-07-28T15:01:50.510Z,22.18
2022-07-28T15:06:53.374Z,21.87
2022-07-28T15:11:56.191Z,21.48
2022-07-28T15:16:59.252Z,21.18
2022-07-28T15:22:02.032Z,21.02
2022-07-28T15:27:07.532Z,21.00
2022-07-28T15:32:11.766Z,20.89
2022-07-28T15:37:17.876Z,20.79
2022-07-28T15:42:20.503Z,20.63
2022-07-28T15:47:29.033Z,20.41
2022-07-28T15:52:37.077Z,20.23
2022-07-28T15:58:04.106Z,20.19
2022-07-28T16:03:07.440Z,20.19
2022-07-28T16:08:10.220Z,20.13
2022-07-28T16:13:12.821Z,20.19
2022-07-28T16:18:24.167Z,20.16
2022-07-28T16:23:30.077Z,20.13
2022-07-28T16:28:32.616Z,19.98
2022-07-28T16:33:35.356Z,19.82
2022-07-28T16:38:38.090Z,19.62
2022-07-28T16:43:44.658Z,19.42
2022-07-28T16:48:47.520Z,19.25
2022-07-28T16:53:52.385Z,19.10
2022-07-28T16:58:54.949Z,18.97
2022-07-28T17:03:57.409Z,18.85
2022-07-28T17:09:00.115Z,18.77
2022-07-28T17:14:03.121Z,18.71
2022-07-28T17:19:05.724Z,18.60
2022-07-28T17:24:11.625Z,18.58
2022-07-28T17:29:14.274Z,18.49
2022-07-28T17:34:17.284Z,18.36
2022-07-28T17:39:20.049Z,18.28
2022-07-28T17:44:23.817Z,18.21
2022-07-28T17:49:29.537Z,18.11
2022-07-28T17:54:52.096Z,18.01
2022-07-28T17:59:56.848Z,17.95
2022-07-28T18:04:59.457Z,17.90
2022-07-28T18:10:02.154Z,17.84
2022-07-28T18:15:05.163Z,17.77
2022-07-28T18:20:08.130Z,17.73
2022-07-28T18:25:11.077Z,17.69
2022-07-28T18:30:14.010Z,17.61
2022-07-28T18:35:17.191Z,17.53
2022-07-28T18:40:21.878Z,17.46
2022-07-28T18:45:27.092Z,17.45
2022-07-28T18:50:31.159Z,17.40
2022-07-28T18:55:34.330Z,17.31
2022-07-28T19:00:37.000Z,17.28
2022-07-28T19:05:44.098Z,17.25
2022-07-28T19:10:48.534Z,17.19
2022-07-28T19:15:51.196Z,17.19
2022-07-28T19:20:53.794Z,17.19
2022-07-28T19:25:56.616Z,17.13
2022-07-28T19:31:00.323Z,17.09
2022-07-28T19:36:15.680Z,17.02
2022-07-28T19:41:18.208Z,16.93
2022-07-28T19:46:20.845Z,16.86
2022-07-28T19:51:23.824Z,16.91
2022-07-28T19:56:31.040Z,16.89
2022-07-28T20:01:34.378Z,16.74
2022-07-28T20:06:36.902Z,16.51
2022-07-28T20:11:39.728Z,16.43
2022-07-28T20:16:43.050Z,16.36
2022-07-28T20:21:49.232Z,16.32
2022-07-28T20:26:51.912Z,16.30
2022-07-28T20:31:54.407Z,16.20
2022-07-28T20:36:56.964Z,16.16
2022-07-28T20:41:59.491Z,16.05
2022-07-28T20:47:02.614Z,16.01
2022-07-28T20:52:06.091Z,16.14
2022-07-28T20:57:08.622Z,16.23
2022-07-28T21:02:11.257Z,16.10
2022-07-28T21:07:13.916Z,15.99
2022-07-28T21:12:16.496Z,15.90
2022-07-28T21:17:19.093Z,15.81
2022-07-28T21:22:21.733Z,15.74
2022-07-28T21:27:24.239Z,15.76
2022-07-28T21:32:26.974Z,15.77
2022-07-28T21:37:29.483Z,15.73
2022-07-28T21:42:32.425Z,15.63
2022-07-28T21:47:34.883Z,15.60
2022-07-28T21:52:39.057Z,15.54
2022-07-28T21:57:41.541Z,15.50
2022-07-28T22:02:44.162Z,15.46
2022-07-28T22:07:46.769Z,15.46
2022-07-28T22:12:49.811Z,15.39
2022-07-28T22:17:52.343Z,15.37
2022-07-28T22:22:54.842Z,15.36
2022-07-28T22:27:57.395Z,15.33
2022-07-28T22:32:59.928Z,15.34
2022-07-28T22:38:02.585Z,15.33
2022-07-28T22:43:05.118Z,15.37
2022-07-28T22:48:07.689Z,15.46
2022-07-28T22:53:15.333Z,15.56
2022-07-28T22:58:17.854Z,15.66
2022-07-28T23:03:20.456Z,15.73
2022-07-28T23:08:23.043Z,15.78
2022-07-28T23:13:25.515Z,15.86
2022-07-28T23:18:28.199Z,15.91
2022-07-28T23:23:30.621Z,15.95
2022-07-28T23:28:33.345Z,16.03
2022-07-28T23:33:55.611Z,16.14
2022-07-28T23:38:59.018Z,16.24
2022-07-28T23:44:01.518Z,16.32
2022-07-28T23:49:04.116Z,16.44
2022-07-28T23:54:06.702Z,16.70
2022-07-28T23:59:13.483Z,16.79
